Time;durP1;ratioP1;P1;durP2;ratioP2;P2;SDS_P1;SDS_P2;PMS_P1;PMS_P2;Temp;Humidity;BMP_temperature;BMP_pressure;BME280_temperature;BME280_humidity;BME280_pressure;Samples;Min_cycle;Max_cycle;Signal;HPM_P1;HPM_P2
2024/01/24 00:02:20;;;;;;;22.30;16.50;;;;;;;5.63;100.00;100338.80;104779;1252;60627;-63
2024/01/24 00:05:25;;;;;;;19.80;16.10;;;;;;;5.93;100.00;100344.90;105159;1256;74483;-62
2024/01/24 00:12:44;;;;;;;19.70;15.90;;;;;;;6.12;100.00;100348.84;104435;1251;73981;-62
2024/01/24 00:20:16;;;;;;;19.40;15.30;;;;;;;6.00;100.00;100345.16;105519;1253;62799;-63
2024/01/24 00:23:28;;;;;;;19.80;15.10;;;;;;;5.96;100.00;100334.58;104415;1256;74136;-64
2024/01/24 00:26:40;;;;;;;20.20;15.20;;;;;;;6.05;100.00;100335.00;104477;1263;68882;-63
2024/01/24 00:32:19;;;;;;;20.10;17.10;;;;;;;5.83;100.00;100324.95;101402;1296;602594;-61
2024/01/24 00:35:37;;;;;;;22.40;16.70;;;;;;;6.83;100.00;100326.70;103756;1268;60253;-61
2024/01/24 00:38:49;;;;;;;23.20;17.00;;;;;;;6.28;100.00;100323.02;103932;1272;60091;-61
2024/01/24 00:42:00;;;;;;;22.40;16.80;;;;;;;6.18;100.00;100326.64;103530;1280;72097;-62
2024/01/24 00:44:37;;;;;;;22.90;17.50;;;;;;;6.18;100.00;100317.95;99644;1272;5452433;-60
2024/01/24 00:47:48;;;;;;;19.50;16.20;;;;;;;6.06;100.00;100319.15;103794;1279;71434;-60
2024/01/24 00:51:00;;;;;;;19.20;16.00;;;;;;;5.94;100.00;100322.60;103922;1269;60599;-61
2024/01/24 00:57:29;;;;;;;25.90;18.10;;;;;;;5.97;100.00;100318.23;103704;1276;71805;-61
2024/01/24 01:00:41;;;;;;;18.50;15.50;;;;;;;5.95;100.00;100319.98;104629;1267;68136;-61
2024/01/24 01:03:53;;;;;;;18.30;15.60;;;;;;;6.00;100.00;100317.66;104363;1269;73358;-61
2024/01/24 01:07:06;;;;;;;19.50;14.80;;;;;;;5.70;100.00;100318.02;103808;1267;59827;-61
2024/01/24 01:10:17;;;;;;;19.10;16.20;;;;;;;5.60;100.00;100314.47;103730;1267;60082;-61
2024/01/24 01:20:49;;;;;;;22.10;18.00;;;;;;;5.81;100.00;100307.44;103632;1265;72486;-61
2024/01/24 01:24:01;;;;;;;23.80;17.50;;;;;;;5.71;100.00;100307.56;103508;1267;61057;-62
2024/01/24 01:27:13;;;;;;;23.40;18.40;;;;;;;5.78;100.00;100304.68;104095;1264;60001;-63
2024/01/24 01:29:47;;;;;;;23.40;18.80;;;;;;;5.59;100.00;100308.92;103888;1269;74021;-61
2024/01/24 01:32:59;;;;;;;24.70;18.00;;;;;;;5.56;100.00;100302.52;104174;1267;69105;-62
2024/01/24 01:40:00;;;;;;;25.50;18.70;;;;;;;5.64;100.00;100290.26;103700;1264;61121;-62
2024/01/24 01:43:14;;;;;;;21.60;17.10;;;;;;;5.53;100.00;100293.18;103902;1270;61241;-62
2024/01/24 01:46:27;;;;;;;20.00;17.30;;;;;;;5.49;100.00;100295.48;103701;1270;71829;-62
2024/01/24 01:49:39;;;;;;;20.10;17.60;;;;;;;5.50;100.00;100292.33;104038;1269;69316;-61
2024/01/24 01:52:52;;;;;;;20.90;17.20;;;;;;;5.58;100.00;100282.34;103709;1285;72440;-61
2024/01/24 01:56:04;;;;;;;22.80;17.40;;;;;;;5.66;100.00;100290.93;104073;1270;62828;-62
2024/01/24 02:02:50;;;;;;;24.20;18.90;;;;;;;5.78;100.00;100286.44;104061;1265;72873;-62
2024/01/24 02:05:28;;;;;;;22.10;17.80;;;;;;;5.65;100.00;100288.16;104253;1267;69111;-62
2024/01/24 02:08:43;;;;;;;19.50;16.80;;;;;;;5.83;100.00;100284.98;103811;1270;72429;-62
2024/01/24 02:11:58;;;;;;;21.20;17.40;;;;;;;6.06;100.00;100279.66;104520;1266;61312;-62
2024/01/24 02:19:30;;;;;;;25.30;18.70;;;;;;;5.79;100.00;100275.97;103983;1270;73799;-63
2024/01/24 02:22:42;;;;;;;22.90;17.90;;;;;;;5.87;100.00;100280.92;103653;1267;69099;-62
2024/01/24 02:25:54;;;;;;;23.30;17.60;;;;;;;5.96;100.00;100288.30;103954;1264;72526;-60
2024/01/24 02:29:08;;;;;;;20.80;17.30;;;;;;;5.89;100.00;100286.30;104069;1264;60968;-61
2024/01/24 02:32:24;;;;;;;23.00;18.00;;;;;;;5.91;100.00;100289.92;104137;1266;60296;-61
2024/01/24 02:35:35;;;;;;;26.70;18.70;;;;;;;5.96;100.00;100290.71;104126;1264;73765;-61
2024/01/24 02:38:50;;;;;;;24.20;19.10;;;;;;;5.84;100.00;100292.61;104671;1264;69627;-60
2024/01/24 02:46:24;;;;;;;24.40;17.80;;;;;;;5.94;100.00;100290.58;104743;1267;62663;-61
2024/01/24 02:49:36;;;;;;;23.20;18.30;;;;;;;6.00;100.00;100291.91;104184;1262;60137;-61
2024/01/24 02:52:47;;;;;;;24.20;19.30;;;;;;;5.97;100.00;100288.29;107168;1260;73653;-62
2024/01/24 02:56:03;;;;;;;22.20;17.90;;;;;;;5.99;100.00;100289.66;107170;1262;69258;-62
2024/01/24 02:59:16;;;;;;;23.20;18.40;;;;;;;5.85;100.00;100285.46;107250;1263;72355;-60
2024/01/24 03:05:41;;;;;;;24.90;19.40;;;;;;;5.89;100.00;100283.68;107186;1263;59806;-62
2024/01/24 03:12:48;;;;;;;22.50;17.10;;;;;;;5.84;100.00;100265.13;107410;1260;69270;-63
2024/01/24 03:16:00;;;;;;;23.80;18.70;;;;;;;5.82;100.00;100262.00;107157;1260;72971;-62
2024/01/24 03:19:14;;;;;;;27.50;18.60;;;;;;;6.02;100.00;100268.21;107207;1263;59692;-62
2024/01/24 03:22:29;;;;;;;26.10;18.80;;;;;;;6.12;100.00;100267.04;107355;1263;58744;-62
2024/01/24 03:25:41;;;;;;;27.10;19.40;;;;;;;6.13;100.00;100264.77;107187;1263;72014;-62
2024/01/24 03:28:52;;;;;;;25.20;19.00;;;;;;;6.00;100.00;100269.10;107224;1260;69626;-61
2024/01/24 03:31:20;;;;;;;28.10;19.80;;;;;;;5.95;100.00;100266.03;107182;1260;71577;-60
2024/01/24 03:33:48;;;;;;;26.00;19.00;;;;;;;5.98;100.00;100264.80;107342;1262;60970;-60
2024/01/24 03:37:01;;;;;;;24.10;19.30;;;;;;;6.02;100.00;100270.14;107098;1260;59871;-60
2024/01/24 03:40:12;;;;;;;25.10;19.40;;;;;;;6.01;100.00;100265.09;107397;1260;73285;-60
2024/01/24 03:47:11;;;;;;;26.40;20.00;;;;;;;5.98;100.00;100257.98;107354;1260;73017;-60
2024/01/24 03:54:07;;;;;;;25.60;18.60;;;;;;;5.95;100.00;100254.53;107204;1262;60262;-60
2024/01/24 04:01:36;;;;;;;27.80;20.30;;;;;;;6.12;100.00;100241.09;107496;1260;69215;-60
2024/01/24 04:04:48;;;;;;;29.70;21.10;;;;;;;6.22;100.00;100245.12;107404;1263;72288;-60
2024/01/24 04:08:02;;;;;;;27.30;20.30;;;;;;;6.33;100.00;100235.36;107414;1260;61543;-60
2024/01/24 04:11:13;;;;;;;30.50;20.70;;;;;;;6.14;100.00;100232.89;107235;1260;59039;-62
2024/01/24 04:14:24;;;;;;;26.30;19.30;;;;;;;6.32;100.00;100224.08;107305;1260;72955;-60
2024/01/24 04:17:35;;;;;;;25.00;18.80;;;;;;;6.31;100.00;100226.01;107404;1260;69527;-60
2024/01/24 04:20:49;;;;;;;24.50;19.00;;;;;;;6.41;100.00;100226.37;107198;1260;72401;-60
2024/01/24 04:24:00;;;;;;;26.50;19.40;;;;;;;6.27;100.00;100226.42;107297;1260;60597;-60
2024/01/24 04:27:12;;;;;;;27.80;20.70;;;;;;;6.28;100.00;100225.70;107117;1262;60063;-60
2024/01/24 04:30:23;;;;;;;24.90;20.10;;;;;;;6.48;100.00;100223.80;107403;1262;72518;-59
2024/01/24 04:33:35;;;;;;;24.40;18.70;;;;;;;6.48;100.00;100232.17;107335;1260;70074;-59
2024/01/24 04:36:46;;;;;;;25.90;19.90;;;;;;;6.18;100.00;100237.70;107084;1262;72886;-60
2024/01/24 04:43:45;;;;;;;25.50;19.70;;;;;;;6.31;100.00;100240.45;107422;1260;59767;-60
2024/01/24 04:50:44;;;;;;;24.70;19.80;;;;;;;6.33;100.00;100243.89;107392;1261;69278;-60
2024/01/24 04:57:47;;;;;;;26.40;20.10;;;;;;;6.15;100.00;100249.58;107625;1257;60685;-60
2024/01/24 05:01:01;;;;;;;26.10;20.70;;;;;;;6.02;100.00;100245.60;107626;1257;59740;-60
2024/01/24 05:04:14;;;;;;;28.00;21.30;;;;;;;5.92;100.00;100233.72;107596;1257;73298;-60
2024/01/24 05:07:25;;;;;;;31.30;22.00;;;;;;;5.92;100.00;100238.93;107592;1257;69099;-60
2024/01/24 05:10:39;;;;;;;28.50;21.30;;;;;;;5.91;100.00;100249.73;107619;1257;73034;-60
2024/01/24 05:13:51;;;;;;;26.40;19.50;;;;;;;5.78;100.00;100251.11;107515;1257;60782;-60
2024/01/24 05:17:02;;;;;;;33.00;22.40;;;;;;;5.62;100.00;100262.80;107645;1257;60086;-60
2024/01/24 05:27:28;;;;;;;31.40;21.20;;;;;;;5.77;100.00;100254.77;107714;1258;72904;-58
2024/01/24 05:34:58;;;;;;;27.30;19.70;;;;;;;5.49;100.00;100260.52;107703;1257;59953;-60
2024/01/24 05:46:00;;;;;;;24.80;17.10;;;;;;;5.58;100.00;100276.92;107596;1257;72185;-61
2024/01/24 05:49:12;;;;;;;26.50;18.60;;;;;;;5.63;100.00;100264.88;107638;1257;60980;-61
2024/01/24 05:55:50;;;;;;;26.60;20.30;;;;;;;5.64;100.00;100256.52;101604;1297;603722;-61
2024/01/24 05:59:02;;;;;;;26.50;19.50;;;;;;;5.50;100.00;100270.79;103499;1272;60561;-61
2024/01/24 06:02:15;;;;;;;25.70;19.50;;;;;;;5.34;100.00;100242.97;103521;1273;61030;-63
2024/01/24 06:05:27;;;;;;;25.80;19.50;;;;;;;5.28;100.00;100253.48;104201;1274;72111;-61
2024/01/24 06:08:39;;;;;;;27.00;19.10;;;;;;;5.20;100.00;100254.80;99744;1270;5451463;-61
2024/01/24 06:15:22;;;;;;;22.70;16.80;;;;;;;5.28;100.00;100268.07;104073;1270;59260;-62
2024/01/24 06:18:34;;;;;;;25.80;17.90;;;;;;;5.23;100.00;100262.21;103728;1271;71824;-61
2024/01/24 06:21:18;;;;;;;25.30;16.20;;;;;;;5.47;100.00;100257.95;104055;1268;70178;-62
2024/01/24 06:24:30;;;;;;;22.10;16.10;;;;;;;5.49;100.00;100266.45;103893;1270;72393;-63
2024/01/24 06:27:42;;;;;;;25.20;16.40;;;;;;;5.61;100.00;100260.72;104430;1266;62618;-62
2024/01/24 06:30:54;;;;;;;27.60;17.20;;;;;;;5.58;100.00;100257.82;103557;1265;60122;-62
2024/01/24 06:34:06;;;;;;;24.70;18.00;;;;;;;5.60;100.00;100245.77;104018;1283;72874;-61
2024/01/24 06:37:18;;;;;;;27.00;17.30;;;;;;;5.65;100.00;100244.86;103950;1277;70326;-62
2024/01/24 06:40:31;;;;;;;25.80;17.90;;;;;;;5.71;100.00;100242.69;104257;1266;71764;-62
2024/01/24 06:43:45;;;;;;;28.00;17.50;;;;;;;5.79;100.00;100234.74;104048;1263;61330;-61
2024/01/24 06:47:00;;;;;;;32.00;18.00;;;;;;;5.81;100.00;100230.19;104650;1264;60204;-62
2024/01/24 06:50:13;;;;;;;25.60;17.50;;;;;;;5.87;100.00;100228.02;104185;1265;73692;-60
2024/01/24 06:57:04;;;;;;;34.30;20.10;;;;;;;6.11;100.00;100228.59;103898;1266;75854;-60
2024/01/24 07:00:18;;;;;;;34.30;19.90;;;;;;;6.10;100.00;100228.59;104696;1267;60959;-60
2024/01/24 07:03:31;;;;;;;29.00;18.60;;;;;;;6.15;100.00;100225.38;104315;1277;60132;-61
2024/01/24 07:06:44;;;;;;;27.60;18.00;;;;;;;6.18;100.00;100221.69;104287;1266;75960;-61
2024/01/24 07:09:27;;;;;;;32.10;19.60;;;;;;;6.18;100.00;100211.57;104313;1267;69602;-62
2024/01/24 07:12:44;;;;;;;26.30;18.30;;;;;;;6.23;100.00;100208.20;104527;1264;71627;-60
2024/01/24 07:16:02;;;;;;;25.20;16.90;;;;;;;6.29;100.00;100210.19;104409;1264;60609;-60
2024/01/24 07:23:33;;;;;;;25.90;16.50;;;;;;;6.40;100.00;100218.03;104842;1264;73591;-60
2024/01/24 07:26:20;;;;;;;25.50;16.40;;;;;;;6.46;100.00;100215.15;104419;1264;69551;-65
2024/01/24 07:29:32;;;;;;;28.80;18.30;;;;;;;6.48;100.00;100214.59;104672;1263;72608;-68
2024/01/24 07:32:41;;;;;;;27.20;18.40;;;;;;;6.50;100.00;100223.25;104225;1267;60623;-66
2024/01/24 07:35:12;;;;;;;24.20;16.60;;;;;;;6.43;100.00;100226.52;104722;1264;59759;-66
2024/01/24 07:42:15;;;;;;;25.00;16.40;;;;;;;6.51;100.00;100224.11;104040;1279;70081;-67
2024/01/24 07:49:16;;;;;;;30.60;18.40;;;;;;;6.44;100.00;100214.82;103970;1264;60611;-67
2024/01/24 07:56:17;;;;;;;26.20;18.30;;;;;;;6.18;100.00;100200.63;103775;1285;72097;-67
2024/01/24 07:59:37;;;;;;;29.20;18.90;;;;;;;6.24;100.00;100192.70;104939;1263;69446;-67
2024/01/24 08:02:49;;;;;;;34.00;20.00;;;;;;;6.32;100.00;100187.34;104354;1276;72659;-67
2024/01/24 08:05:18;;;;;;;34.20;21.10;;;;;;;6.35;100.00;100188.52;104088;1267;60907;-67
2024/01/24 08:08:34;;;;;;;32.20;21.60;;;;;;;6.35;100.00;100186.07;104345;1264;60043;-67
2024/01/24 08:11:22;;;;;;;31.00;20.60;;;;;;;6.39;100.00;100179.21;104591;1260;72929;-66
2024/01/24 08:21:19;;;;;;;35.90;22.00;;;;;;;6.79;100.00;100163.34;104900;1263;63211;-66
2024/01/24 08:31:51;;;;;;;31.00;18.90;;;;;;;6.87;100.00;100149.26;104332;1267;70574;-66
2024/01/24 08:35:08;;;;;;;30.30;18.90;;;;;;;6.87;100.00;100143.48;104431;1263;72937;-65
2024/01/24 08:38:20;;;;;;;31.80;20.50;;;;;;;6.81;100.00;100141.69;104100;1267;60615;-66
2024/01/24 08:41:32;;;;;;;33.90;21.10;;;;;;;6.78;100.00;100137.73;104646;1255;59858;-65
2024/01/24 08:44:44;;;;;;;38.80;21.20;;;;;;;6.82;100.00;100131.90;105289;1253;75677;-64
2024/01/24 08:58:08;;;;;;;35.80;20.80;;;;;;;6.78;100.00;100099.05;105009;1254;59702;-65
2024/01/24 09:00:53;;;;;;;37.40;21.70;;;;;;;6.78;100.00;100092.10;105234;1253;72834;-65
2024/01/24 09:04:05;;;;;;;33.30;20.40;;;;;;;6.77;100.00;100080.61;104630;1251;68180;-66
2024/01/24 09:07:19;;;;;;;36.50;21.80;;;;;;;6.79;100.00;100077.42;105188;1255;72493;-65
2024/01/24 09:14:33;;;;;;;36.70;22.60;;;;;;;6.93;100.00;100062.16;104397;1253;59954;-65
2024/01/24 09:17:48;;;;;;;33.20;20.00;;;;;;;6.95;100.00;100052.02;104508;1251;72854;-66
2024/01/24 09:21:01;;;;;;;34.50;21.20;;;;;;;6.96;100.00;100041.35;105004;1253;70260;-65
2024/01/24 09:24:13;;;;;;;35.00;22.10;;;;;;;6.93;100.00;100037.77;104770;1257;72332;-65
2024/01/24 09:27:25;;;;;;;35.40;22.20;;;;;;;7.02;100.00;100026.92;105002;1254;60631;-67
2024/01/24 09:30:43;;;;;;;38.90;23.00;;;;;;;7.08;100.00;100012.69;104354;1271;59794;-63
2024/01/24 09:37:44;;;;;;;38.20;23.40;;;;;;;7.24;100.00;99996.98;104943;1253;70505;-62
2024/01/24 09:44:32;;;;;;;35.90;23.70;;;;;;;7.22;100.00;99987.78;105276;1255;60703;-63
2024/01/24 09:47:45;;;;;;;42.10;24.80;;;;;;;7.14;100.00;99979.06;104667;1254;60140;-63
2024/01/24 09:50:57;;;;;;;43.20;26.60;;;;;;;7.16;100.00;99969.59;104809;1253;73151;-62
2024/01/24 09:54:09;;;;;;;38.20;24.20;;;;;;;7.14;100.00;99959.03;104792;1260;69830;-63
2024/01/24 09:57:22;;;;;;;36.70;23.00;;;;;;;7.16;100.00;99950.42;104815;1253;75396;-63
2024/01/24 10:00:34;;;;;;;36.90;24.10;;;;;;;7.16;100.00;99947.48;104411;1257;61425;-63
2024/01/24 10:03:46;;;;;;;47.40;24.80;;;;;;;7.18;100.00;99944.98;105452;1255;60113;-64
2024/01/24 10:06:58;;;;;;;35.70;22.90;;;;;;;7.21;100.00;99932.68;104552;1269;73152;-64
2024/01/24 10:10:15;;;;;;;40.40;24.60;;;;;;;7.10;100.00;99920.94;104706;1254;70112;-64
2024/01/24 10:13:28;;;;;;;43.00;25.10;;;;;;;7.14;100.00;99917.17;104324;1269;71562;-63
2024/01/24 10:16:21;;;;;;;36.50;22.70;;;;;;;7.18;100.00;99918.12;104350;1261;61018;-63
2024/01/24 10:19:33;;;;;;;38.60;24.70;;;;;;;7.19;100.00;99915.66;104653;1262;60498;-63
2024/01/24 10:22:45;;;;;;;34.90;22.20;;;;;;;7.26;100.00;99905.21;104684;1257;72181;-63
2024/01/24 10:25:58;;;;;;;36.20;22.80;;;;;;;7.32;100.00;99901.91;104452;1256;70275;-62
2024/01/24 10:29:10;;;;;;;36.80;23.00;;;;;;;7.39;100.00;99896.16;105131;1257;71825;-62
2024/01/24 10:32:22;;;;;;;33.00;23.40;;;;;;;7.43;100.00;99886.30;104615;1256;60620;-62
2024/01/24 10:35:40;;;;;;;31.80;22.10;;;;;;;7.45;100.00;99881.54;104924;1252;59731;-62
2024/01/24 10:46:43;;;;;;;27.50;19.70;;;;;;;7.60;100.00;99862.29;104643;1255;73337;-63
2024/01/24 10:49:54;;;;;;;29.40;20.40;;;;;;;7.61;100.00;99858.95;104443;1257;60685;-64
2024/01/24 10:53:07;;;;;;;30.50;20.10;;;;;;;7.75;100.00;99846.16;104497;1265;59808;-64
2024/01/24 10:56:19;;;;;;;29.40;20.30;;;;;;;7.84;100.00;99839.83;104439;1261;72907;-65
2024/01/24 10:59:31;;;;;;;28.30;20.20;;;;;;;7.86;100.00;99828.75;104393;1257;69437;-63
2024/01/24 11:01:59;;;;;;;27.30;19.70;;;;;;;7.96;100.00;99820.11;105136;1254;73609;-64
2024/01/24 11:05:11;;;;;;;31.50;20.60;;;;;;;7.98;100.00;99812.18;104383;1257;60685;-64
2024/01/24 11:12:44;;;;;;;34.80;19.60;;;;;;;8.09;100.00;99800.50;104496;1256;74444;-63
2024/01/24 11:15:51;;;;;;;27.60;18.90;;;;;;;8.20;100.00;99785.88;105006;1271;69940;-63
2024/01/24 11:19:03;;;;;;;28.60;19.60;;;;;;;8.21;100.00;99776.41;104980;1253;71940;-69
2024/01/24 11:22:15;;;;;;;24.70;19.30;;;;;;;8.14;100.00;99779.40;104703;1251;60592;-61
2024/01/24 11:25:40;;;;;;;27.40;19.10;;;;;;;8.14;100.00;99775.73;104526;1257;60704;-62
2024/01/24 11:32:43;;;;;;;27.60;19.70;;;;;;;8.26;100.00;99764.71;104389;1257;69985;-63
2024/01/24 11:35:56;;;;;;;28.00;19.00;;;;;;;8.37;100.00;99756.70;104943;1257;72614;-64
2024/01/24 11:39:08;;;;;;;28.70;20.40;;;;;;;8.18;100.00;99752.91;104734;1265;62633;-62
2024/01/24 11:42:20;;;;;;;26.20;19.80;;;;;;;8.04;100.00;99744.99;104927;1256;60454;-63
2024/01/24 11:45:32;;;;;;;28.30;19.30;;;;;;;7.98;100.00;99748.84;104817;1255;72772;-63
2024/01/24 11:48:47;;;;;;;26.30;19.30;;;;;;;7.91;100.00;99749.73;104427;1255;70541;-61
2024/01/24 11:52:03;;;;;;;30.30;21.10;;;;;;;7.94;100.00;99742.83;104340;1257;72556;-61
2024/01/24 11:55:15;;;;;;;42.30;22.70;;;;;;;7.99;100.00;99737.08;104437;1257;61878;-62
2024/01/24 11:58:28;;;;;;;44.70;40.00;;;;;;;7.99;100.00;99728.19;104823;1253;60555;-62
2024/01/24 12:01:40;;;;;;;50.40;45.40;;;;;;;7.95;100.00;99722.56;104797;1252;74359;-62
2024/01/24 12:04:53;;;;;;;32.10;25.10;;;;;;;8.03;100.00;99720.03;104714;1252;70191;-63
2024/01/24 12:08:04;;;;;;;28.60;20.50;;;;;;;7.96;100.00;99714.48;104559;1253;73198;-63
2024/01/24 12:11:17;;;;;;;26.50;19.70;;;;;;;7.88;100.00;99713.17;104362;1252;61217;-63
2024/01/24 12:14:30;;;;;;;69.10;50.60;;;;;;;7.81;100.00;99703.44;104326;1264;59648;-63
2024/01/24 12:17:43;;;;;;;41.60;30.60;;;;;;;7.85;100.00;99693.90;104377;1254;72978;-63
2024/01/24 12:20:55;;;;;;;41.80;30.10;;;;;;;7.81;100.00;99681.44;104659;1256;69617;-64
2024/01/24 12:28:07;;;;;;;32.80;22.80;;;;;;;7.83;100.00;99678.95;104732;1259;60934;-65
2024/01/24 12:31:26;;;;;;;36.90;25.00;;;;;;;7.86;100.00;99682.88;104338;1260;60050;-62
2024/01/24 12:34:41;;;;;;;27.70;19.70;;;;;;;7.88;100.00;99678.44;104862;1255;74346;-62
2024/01/24 12:37:53;;;;;;;77.90;44.80;;;;;;;7.79;100.00;99674.68;104460;1260;70213;-61
2024/01/24 12:40:36;;;;;;;127.80;62.40;;;;;;;7.78;100.00;99669.33;104428;1265;71673;-60
2024/01/24 12:43:51;;;;;;;219.40;102.80;;;;;;;7.91;100.00;99661.23;104462;1255;60706;-60
2024/01/24 12:48:43;;;;;;;68.50;39.80;;;;;;;7.28;100.00;99643.52;101660;1291;603585;-60
2024/01/24 12:51:59;;;;;;;65.50;35.00;;;;;;;7.86;100.00;99633.45;103453;1270;61206;-60
2024/01/24 12:54:44;;;;;;;;;;;;;;;7.88;100.00;99631.48;104244;1259;60029;-60
2024/01/24 12:57:56;;;;;;;39.80;28.00;;;;;;;7.91;100.00;99620.23;104375;1266;72021;-60
2024/01/24 13:01:08;;;;;;;67.90;37.30;;;;;;;7.85;100.00;99618.68;99528;1264;6325905;-61
2024/01/24 13:04:21;;;;;;;148.90;77.10;;;;;;;7.89;100.00;99622.23;104634;1262;60981;-60
2024/01/24 13:07:36;;;;;;;33.70;20.90;;;;;;;7.73;100.00;99624.45;104304;1261;60343;-61
2024/01/24 13:10:51;;;;;;;41.70;21.90;;;;;;;7.72;100.00;99624.66;104323;1260;72250;-60
2024/01/24 13:14:04;;;;;;;94.90;43.30;;;;;;;7.97;100.00;99622.13;104249;1270;69864;-61
2024/01/24 13:17:17;;;;;;;24.40;15.90;;;;;;;7.65;100.00;99617.56;104386;1279;71561;-61
2024/01/24 13:20:29;;;;;;;46.80;27.40;;;;;;;7.57;100.00;99609.08;104186;1260;60896;-61
2024/01/24 13:23:42;;;;;;;45.30;25.30;;;;;;;7.44;100.00;99612.80;104155;1272;59679;-60
2024/01/24 13:26:54;;;;;;;26.00;18.00;;;;;;;7.46;100.00;99612.20;104268;1263;71872;-60
2024/01/24 13:30:07;;;;;;;24.90;17.40;;;;;;;7.43;100.00;99598.19;104517;1263;69549;-60
2024/01/24 13:33:22;;;;;;;24.50;15.30;;;;;;;7.45;100.00;99591.83;104366;1262;72795;-61
2024/01/24 13:40:55;;;;;;;41.20;23.80;;;;;;;7.55;100.00;99576.70;104277;1261;60210;-61
2024/01/24 13:43:48;;;;;;;27.70;18.10;;;;;;;7.55;100.00;99567.98;104519;1262;72020;-64
2024/01/24 13:46:19;;;;;;;26.10;17.50;;;;;;;7.55;100.00;99575.31;104290;1263;70742;-63
2024/01/24 13:49:32;;;;;;;25.40;17.60;;;;;;;7.52;100.00;99582.54;104436;1273;71926;-64
2024/01/24 13:52:44;;;;;;;23.60;17.10;;;;;;;7.53;100.00;99580.23;104870;1262;60904;-63
2024/01/24 13:55:57;;;;;;;28.40;21.30;;;;;;;7.55;100.00;99574.23;104302;1264;60265;-63
2024/01/24 13:59:09;;;;;;;23.60;17.90;;;;;;;7.54;100.00;99565.02;104233;1268;73562;-63
2024/01/24 14:02:21;;;;;;;24.50;16.80;;;;;;;7.51;100.00;99561.14;104234;1263;68496;-63
2024/01/24 14:05:33;;;;;;;19.90;16.40;;;;;;;7.55;100.00;99560.29;104584;1263;73618;-61
2024/01/24 14:08:48;;;;;;;22.00;16.70;;;;;;;7.55;100.00;99552.29;104551;1257;60047;-63
2024/01/24 14:12:04;;;;;;;21.40;16.70;;;;;;;7.49;100.00;99542.52;104156;1262;60910;-63
2024/01/24 14:15:16;;;;;;;20.90;15.00;;;;;;;7.43;100.00;99537.67;104254;1262;72830;-64
2024/01/24 14:18:48;;;;;;;24.50;15.90;;;;;;;7.36;100.00;99532.11;104948;1257;70240;-63
2024/01/24 14:22:03;;;;;;;20.80;15.20;;;;;;;7.30;100.00;99530.56;103982;1264;72521;-63
2024/01/24 14:25:15;;;;;;;18.10;14.20;;;;;;;7.33;100.00;99527.35;104283;1264;60919;-64
2024/01/24 14:37:07;;;;;;;23.30;15.60;;;;;;;7.12;100.00;99516.32;104329;1272;70622;-63
2024/01/24 14:40:21;;;;;;;21.00;14.70;;;;;;;7.09;100.00;99505.23;104129;1263;71503;-63
2024/01/24 14:43:37;;;;;;;30.30;17.60;;;;;;;7.07;100.00;99494.85;104123;1261;62165;-63
2024/01/24 14:51:08;;;;;;;26.50;16.50;;;;;;;7.10;100.00;99457.98;104239;1257;72383;-60
2024/01/24 14:54:23;;;;;;;45.10;24.00;;;;;;;7.05;100.00;99457.95;104353;1262;69504;-62
2024/01/24 14:57:35;;;;;;;25.90;17.60;;;;;;;7.04;100.00;99451.02;104093;1279;71715;-61
2024/01/24 15:00:50;;;;;;;23.00;16.40;;;;;;;7.11;100.00;99443.31;104509;1264;60545;-69
2024/01/24 15:04:02;;;;;;;20.40;15.40;;;;;;;7.01;100.00;99434.36;104861;1255;59787;-69
2024/01/24 15:07:17;;;;;;;19.00;14.50;;;;;;;7.06;100.00;99431.46;104363;1261;73231;-69
2024/01/24 15:14:51;;;;;;;24.80;16.20;;;;;;;6.95;100.00;99429.52;104451;1261;75392;-70
2024/01/24 15:22:27;;;;;;;22.00;17.60;;;;;;;6.88;100.00;99417.17;104436;1260;59686;-68
2024/01/24 15:29:59;;;;;;;22.90;17.10;;;;;;;6.77;100.00;99405.48;104726;1261;69955;-67
2024/01/24 15:33:11;;;;;;;20.10;15.70;;;;;;;6.85;100.00;99399.67;105345;1260;72724;-66
2024/01/24 15:40:44;;;;;;;23.80;16.70;;;;;;;6.86;100.00;99390.95;104359;1260;62939;-68
2024/01/24 15:43:57;;;;;;;22.50;15.50;;;;;;;6.92;100.00;99384.98;104464;1263;72670;-70
2024/01/24 15:47:08;;;;;;;24.60;17.60;;;;;;;6.96;100.00;99384.52;104328;1273;69534;-69
2024/01/24 15:50:24;;;;;;;23.90;17.50;;;;;;;6.94;100.00;99372.91;104804;1260;75357;-67
2024/01/24 15:53:37;;;;;;;23.40;17.60;;;;;;;6.81;100.00;99368.44;104287;1260;62198;-68
2024/01/24 15:56:49;;;;;;;25.00;17.90;;;;;;;6.81;100.00;99364.26;104500;1264;59926;-68
2024/01/24 16:00:01;;;;;;;27.40;19.60;;;;;;;6.71;100.00;99356.58;104417;1258;72955;-68
2024/01/24 16:03:26;;;;;;;26.20;19.50;;;;;;;6.82;100.00;99349.77;104358;1273;69791;-68
2024/01/24 16:06:45;;;;;;;27.10;19.30;;;;;;;6.75;100.00;99345.98;103999;1258;72494;-65
2024/01/24 16:09:57;;;;;;;29.50;19.50;;;;;;;6.68;100.00;99333.16;104136;1268;60834;-69
2024/01/24 16:13:09;;;;;;;27.50;20.60;;;;;;;6.65;100.00;99322.63;104112;1273;60873;-62
2024/01/24 16:16:21;;;;;;;29.10;20.70;;;;;;;6.67;100.00;99308.96;104073;1257;76168;-65
2024/01/24 16:19:37;;;;;;;30.70;20.80;;;;;;;6.67;100.00;99288.61;104100;1260;70059;-63
2024/01/24 16:27:09;;;;;;;28.80;20.70;;;;;;;6.62;100.00;99288.92;103997;1270;62498;-63
2024/01/24 16:34:40;;;;;;;37.10;22.70;;;;;;;6.69;100.00;99300.55;104716;1257;74485;-65
2024/01/24 16:37:52;;;;;;;32.80;20.70;;;;;;;6.75;100.00;99295.30;104198;1265;72055;-64
2024/01/24 16:41:04;;;;;;;33.10;21.40;;;;;;;6.78;100.00;99288.92;104644;1258;71741;-64
2024/01/24 16:44:21;;;;;;;36.10;22.40;;;;;;;6.80;100.00;99276.67;104536;1263;63108;-64
2024/01/24 16:47:33;;;;;;;32.00;21.40;;;;;;;6.79;100.00;99269.37;103950;1263;60096;-63
2024/01/24 16:50:45;;;;;;;33.80;21.70;;;;;;;6.74;100.00;99264.15;104270;1253;73686;-63
2024/01/24 16:53:57;;;;;;;33.00;22.40;;;;;;;6.74;100.00;99258.06;104737;1257;69580;-65
2024/01/24 16:57:09;;;;;;;32.10;21.60;;;;;;;6.73;100.00;99248.69;104462;1258;71567;-63
2024/01/24 17:00:27;;;;;;;35.60;22.70;;;;;;;6.74;100.00;99241.86;104998;1264;59933;-64
2024/01/24 17:08:03;;;;;;;28.60;21.40;;;;;;;6.70;100.00;99229.10;104436;1254;74427;-62
2024/01/24 17:15:36;;;;;;;29.70;21.60;;;;;;;6.60;100.00;99216.89;104461;1271;73896;-65
2024/01/24 17:23:08;;;;;;;31.90;20.80;;;;;;;6.57;100.00;99209.50;105165;1258;61676;-64
2024/01/24 17:25:40;;;;;;;28.90;20.80;;;;;;;6.57;100.00;99209.14;104671;1261;75429;-64
2024/01/24 17:28:52;;;;;;;29.70;20.40;;;;;;;6.52;100.00;99200.27;104785;1260;69864;-64
2024/01/24 17:32:07;;;;;;;25.80;19.70;;;;;;;6.49;100.00;99193.23;104860;1263;71535;-62
2024/01/24 17:35:18;;;;;;;28.40;21.60;;;;;;;6.43;100.00;99183.86;104401;1254;60956;-60
2024/01/24 17:38:35;;;;;;;28.80;19.60;;;;;;;6.46;100.00;99176.44;104362;1254;60018;-63
2024/01/24 17:41:24;;;;;;;;;;;;;;;6.51;100.00;99164.09;104645;1253;73319;-62
2024/01/24 17:44:36;;;;;;;29.80;19.90;;;;;;;6.41;100.00;99165.46;105334;1253;69736;-62
2024/01/24 17:47:48;;;;;;;26.80;19.30;;;;;;;6.40;100.00;99154.86;105400;1253;72536;-60
2024/01/24 17:51:02;;;;;;;27.50;19.90;;;;;;;6.36;100.00;99148.04;104784;1254;61234;-62
2024/01/24 17:53:40;;;;;;;22.40;16.80;;;;;;;6.31;100.00;99135.51;105133;1255;60910;-63
2024/01/24 17:56:20;;;;;;;;;;;;;;;6.18;100.00;99130.71;104405;1258;73721;-64
2024/01/24 17:59:35;;;;;;;26.10;18.00;;;;;;;6.13;100.00;99120.23;104481;1257;69489;-66
2024/01/24 18:02:47;;;;;;;23.20;17.90;;;;;;;6.08;100.00;99113.28;104357;1265;72756;-65
2024/01/24 18:05:59;;;;;;;28.70;18.80;;;;;;;6.09;100.00;99102.30;104332;1269;59977;-60
2024/01/24 18:09:11;;;;;;;24.70;18.40;;;;;;;6.09;100.00;99090.09;105537;1256;60382;-64